Pescara - LIBP

Metar : METAR LIBP 081850Z 07003KT CAVOK 11/08 Q1024=

Taf : TAF LIBP 081700Z 0818/0918 04010KT CAVOK BECMG 0818/0820 VRB04KT BECMG 0909/0911 03010KT=

 Scopri come leggere i bollettini codificati...


Storico

LIBP 081850Z 07003KT CAVOK 11/08 Q1024
LIBP 081750Z 22002KT CAVOK 14/06 Q1023
LIBP 081650Z 05004KT CAVOK 15/07 Q1024
LIBP 081550Z 03005KT 360V060 CAVOK 16/06 Q1024
LIBP 081450Z 04008KT CAVOK 17/07 Q1024
LIBP 081350Z 04008KT CAVOK 17/07 Q1024
LIBP 081250Z 03009KT 350V060 CAVOK 17/07 Q1025
LIBP 081150Z 04009KT 010V070 CAVOK 17/07 Q1025
LIBP 081050Z 03013KT CAVOK 17/05 Q1026
LIBP 080950Z 35007KT 310V020 CAVOK 17/03 Q1026
LIBP 080850Z 36008KT 310V050 CAVOK 16/03 Q1027
LIBP 080750Z 25003KT 210V300 CAVOK 14/01 Q1027
LIBP 080650Z 21005KT CAVOK 10/04 Q1026
LIBP 080550Z 21002KT CAVOK 06/02 Q1026
LIBP 080450Z 21006KT CAVOK 03/01 Q1026
LIBP 080350Z AUTO 25004KT 9999 NCD 05/01 Q1026
LIBP 080250Z AUTO 23006KT 9999 NCD 05/02 Q1027
LIBP 080150Z AUTO 25006KT 9999 NCD 05/02 Q1027
LIBP 080050Z AUTO 24006KT 9999 NCD 06/03 Q1028
LIBP 072350Z AUTO 22007KT 9999 NCD 06/04 Q1028
LIBP 072250Z AUTO 23004KT 9000 NCD 06/05 Q1028
LIBP 072150Z AUTO 21006KT 9999 NCD 07/05 Q1028
LIBP 072050Z VRB02KT CAVOK 08/07 Q1028
LIBP 071950Z 21004KT CAVOK 09/07 Q1028
LIBP 071850Z VRB01KT CAVOK 11/07 Q1028
LIBP 071750Z VRB01KT CAVOK 13/07 Q1027
LIBP 071650Z 01004KT 340V040 CAVOK 15/08 Q1027
LIBP 071550Z 01005KT 320V050 CAVOK 16/08 Q1027
LIBP 071450Z 02007KT 340V060 CAVOK 17/08 Q1027
LIBP 071350Z 03009KT 360V060 CAVOK 17/08 Q1027
LIBP 071250Z 04007KT CAVOK 17/08 Q1028
LIBP 071150Z 02009KT 340V050 CAVOK 16/07 Q1028
LIBP 071050Z 01009KT 330V040 CAVOK 16/06 Q1028
LIBP 070950Z 03009KT 350V060 CAVOK 17/04 Q1028
LIBP 070850Z 04008KT CAVOK 17/02 Q1028
LIBP 070750Z VRB01KT CAVOK 15/03 Q1027
LIBP 070650Z 24004KT CAVOK 11/04 Q1027
LIBP 070550Z 23004KT CAVOK 07/03 Q1027
LIBP 070450Z AUTO 24004KT 9999 NCD 05/02 Q1027
LIBP 070350Z AUTO 23006KT 9999 NCD 05/02 Q1027
LIBP 070250Z AUTO 23005KT 9999 NCD 05/03 Q1027
LIBP 070150Z AUTO 23005KT 9999 NCD 06/03 Q1027
LIBP 070050Z AUTO 22003KT 9999 NCD 06/04 Q1027
LIBP 062350Z AUTO 24006KT 9999 NCD 07/04 Q1027
LIBP 062250Z AUTO 23006KT 9999 NCD 08/05 Q1027
LIBP 062150Z AUTO 22005KT 9000 NCD 08/06 Q1027
LIBP 062050Z 26002KT CAVOK 08/07 Q1027
LIBP 061950Z 03002KT CAVOK 11/09 Q1026
LIBP 061850Z 05003KT CAVOK 12/07 Q1026
LIBP 061750Z VRB01KT CAVOK 14/08 Q1025
LIBP 061650Z 05004KT CAVOK 15/08 Q1025
LIBP 061550Z 06006KT CAVOK 16/08 Q1025
LIBP 061450Z 06006KT CAVOK 17/07 Q1025
LIBP 061350Z 04006KT 010V080 CAVOK 17/07 Q1025
LIBP 061250Z 04009KT CAVOK 18/07 Q1025
LIBP 061150Z 05009KT CAVOK 17/07 Q1025
LIBP 061050Z 02009KT 340V060 CAVOK 17/07 Q1025
LIBP 060950Z 03009KT CAVOK 17/06 Q1025
LIBP 060850Z 01007KT 330V050 CAVOK 17/05 Q1025
LIBP 060750Z 22004KT 190V280 CAVOK 14/04 Q1024
LIBP 060650Z 24007KT CAVOK 10/03 Q1024
LIBP 060550Z 24007KT CAVOK 07/03 Q1023
LIBP 060450Z AUTO 21004KT 9999 NCD 04/02 Q1023
LIBP 060350Z AUTO 22004KT 9999 NCD 05/02 Q1023
LIBP 060250Z AUTO 23004KT 9999 NCD 06/02 Q1022
LIBP 060150Z AUTO 24005KT 9999 NCD 06/03 Q1022
LIBP 060050Z AUTO 22005KT 9999 NCD 06/02 Q1022
LIBP 052350Z AUTO 24004KT 9999 NCD 08/03 Q1022
LIBP 052250Z AUTO 23004KT 9999 NCD 08/03 Q1022
LIBP 052150Z AUTO 20006KT 9999 FEW240/// 08/03 Q1021
LIBP 052050Z VRB02KT CAVOK 10/03 Q1021
LIBP 051950Z 24004KT CAVOK 11/03 Q1021
LIBP 051850Z VRB02KT CAVOK 13/03 Q1020
LIBP 051750Z 34003KT 260V050 CAVOK 15/01 Q1020
LIBP 051650Z 36009KT 320V020 CAVOK 16/M00 Q1019
LIBP 051550Z 35011KT 310V020 CAVOK 17/M01 Q1019
LIBP 051450Z 35012KT 320V030 CAVOK 18/M01 Q1019
LIBP 051350Z 35016KT 310V020 CAVOK 18/M01 Q1020
LIBP 051250Z 36013KT CAVOK 17/01 Q1020
LIBP 051150Z 35014KT CAVOK 17/01 Q1020
LIBP 051050Z 35013KT 300V020 CAVOK 18/01 Q1021
LIBP 050950Z 34012KT 300V020 CAVOK 16/01 Q1021
LIBP 050850Z 34010KT 300V020 CAVOK 16/02 Q1021
LIBP 050750Z 34006KT 280V020 CAVOK 15/02 Q1021
LIBP 050650Z 21006KT CAVOK 12/04 Q1021
LIBP 050550Z AUTO 22005KT 9999 NCD 08/03 Q1020
LIBP 050450Z AUTO 20007KT 9999 FEW095/// 06/01 Q1020
LIBP 050350Z AUTO 23006KT 9999 NCD 05/01 Q1020
LIBP 050250Z AUTO 23006KT 9999 NCD 06/01 Q1020
LIBP 050150Z AUTO 23007KT 9999 NCD 06/01 Q1020

Informazioni elaborate utilizzando, tra l’altro, dati e prodotti del Servizio Meteorologico dell’Aeronautica Militare pubblicati sul sito www.meteoam.it e della National Oceanic and Atmospheric Administration (NOAA)

Ultimi caricamenti...


EI-NEO Neos Boeing 787-9 Dreamliner

 


EI-NEO Neos Boeing 787-9 Dreamliner

 


EI-NEO Neos Boeing 787-9 Dreamliner

Questo sito non utilizza cookie di profilazione. Il sito utilizza cookie tecnici, di analisi anonima di prima parte e di terze parti per servizi di social network.